createdAt,value
2022-10-07T00:04:46.208Z,7.00
2022-10-07T00:09:49.452Z,6.80
2022-10-07T00:14:54.635Z,6.70
2022-10-07T00:19:58.482Z,6.80
2022-10-07T00:25:05.801Z,6.70
2022-10-07T00:30:12.445Z,7.20
2022-10-07T00:35:16.010Z,6.90
2022-10-07T00:40:19.385Z,6.80
2022-10-07T00:45:24.825Z,6.90
2022-10-07T00:50:29.595Z,7.00
2022-10-07T00:55:33.241Z,6.90
2022-10-07T01:00:39.620Z,6.60
2022-10-07T01:05:43.445Z,6.40
2022-10-07T01:10:50.434Z,6.70
2022-10-07T01:15:57.357Z,6.40
2022-10-07T01:21:04.626Z,6.50
2022-10-07T01:26:45.286Z,7.00
2022-10-07T01:31:53.050Z,6.50
2022-10-07T01:36:57.090Z,6.50
2022-10-07T01:42:00.911Z,6.30
2022-10-07T01:47:07.459Z,6.20
2022-10-07T01:52:19.634Z,6.00
2022-10-07T01:57:26.919Z,6.00
2022-10-07T02:02:38.171Z,6.00
2022-10-07T02:07:45.557Z,6.00
2022-10-07T02:12:52.160Z,6.20
2022-10-07T02:17:58.399Z,6.10
2022-10-07T02:23:05.095Z,6.20
2022-10-07T02:28:08.997Z,6.30
2022-10-07T02:33:17.412Z,6.50
2022-10-07T02:38:23.645Z,6.60
2022-10-07T02:43:30.360Z,6.70
2022-10-07T02:48:39.002Z,6.90
2022-10-07T02:53:44.645Z,6.70
2022-10-07T02:58:51.132Z,6.50
2022-10-07T03:03:57.489Z,6.80
2022-10-07T03:09:00.910Z,6.90
2022-10-07T03:14:08.440Z,6.80
2022-10-07T03:19:13.428Z,6.60
2022-10-07T03:24:27.485Z,6.60
2022-10-07T03:29:32.843Z,6.90
2022-10-07T03:34:41.107Z,6.60
2022-10-07T03:39:44.444Z,6.40
2022-10-07T03:44:50.332Z,6.70
2022-10-07T03:50:13.659Z,6.70
2022-10-07T03:55:17.229Z,7.00
2022-10-07T04:00:22.236Z,6.60
2022-10-07T04:05:31.114Z,6.60
2022-10-07T04:10:37.536Z,6.50
2022-10-07T04:15:40.801Z,6.50
2022-10-07T04:20:46.032Z,6.40
2022-10-07T04:25:51.978Z,6.30
2022-10-07T04:30:59.975Z,6.80
2022-10-07T04:36:12.787Z,6.40
2022-10-07T04:41:30.352Z,6.60
2022-10-07T04:46:33.913Z,6.60
2022-10-07T04:51:46.995Z,6.40
2022-10-07T04:56:51.804Z,6.60
2022-10-07T05:01:59.975Z,6.80
2022-10-07T05:07:10.867Z,6.50
2022-10-07T05:12:15.275Z,6.40
2022-10-07T05:17:19.176Z,6.20
2022-10-07T05:22:24.026Z,6.60
2022-10-07T05:27:28.620Z,6.10
2022-10-07T05:32:32.102Z,6.10
2022-10-07T05:37:43.231Z,6.10
2022-10-07T05:42:49.897Z,6.20
2022-10-07T05:47:54.928Z,6.20
2022-10-07T05:53:03.451Z,6.30
2022-10-07T05:58:07.392Z,6.20
2022-10-07T06:03:10.975Z,6.00
2022-10-07T06:08:16.273Z,6.00
2022-10-07T06:13:24.141Z,6.20
2022-10-07T06:18:28.402Z,6.20
2022-10-07T06:23:33.777Z,6.10
2022-10-07T06:28:37.938Z,6.30
2022-10-07T06:33:41.477Z,6.20
2022-10-07T06:38:50.482Z,6.50
2022-10-07T06:43:57.328Z,5.90
2022-10-07T06:49:02.777Z,6.20
2022-10-07T06:54:08.338Z,6.30
2022-10-07T06:59:12.419Z,6.60
2022-10-07T07:04:32.932Z,6.60
2022-10-07T07:09:38.838Z,6.30
2022-10-07T07:14:45.059Z,6.30
2022-10-07T07:19:53.986Z,6.20
2022-10-07T07:24:59.212Z,6.30
2022-10-07T07:30:05.367Z,6.50
2022-10-07T07:35:13.635Z,6.70
2022-10-07T07:40:18.222Z,6.70
2022-10-07T07:45:27.855Z,6.60
2022-10-07T07:50:31.405Z,7.00
2022-10-07T07:55:36.771Z,7.10
2022-10-07T08:00:40.221Z,7.10
2022-10-07T08:05:43.572Z,7.20
2022-10-07T08:10:51.781Z,6.90
2022-10-07T08:15:57.837Z,7.60
2022-10-07T08:21:01.545Z,7.60
2022-10-07T08:26:08.546Z,7.70
2022-10-07T08:31:20.202Z,7.80
2022-10-07T08:36:24.242Z,7.90
2022-10-07T08:41:42.963Z,8.30
2022-10-07T08:46:56.112Z,8.80
2022-10-07T08:52:02.182Z,9.20
2022-10-07T08:57:11.672Z,9.20
2022-10-07T09:02:18.594Z,9.20
2022-10-07T09:07:28.927Z,9.10
2022-10-07T09:12:38.603Z,8.90
2022-10-07T09:17:44.156Z,9.30
2022-10-07T09:22:53.363Z,9.30
2022-10-07T09:27:58.790Z,9.90
2022-10-07T09:33:02.106Z,10.10
2022-10-07T09:38:08.198Z,11.40
2022-10-07T09:43:14.275Z,11.60
2022-10-07T09:48:19.978Z,12.20
2022-10-07T09:53:24.656Z,12.50
2022-10-07T09:58:30.146Z,13.60
2022-10-07T10:03:34.101Z,13.20
2022-10-07T10:08:38.074Z,13.90
2022-10-07T10:13:46.389Z,14.80
2022-10-07T10:18:55.417Z,14.40
2022-10-07T10:24:00.038Z,14.20
2022-10-07T10:29:44.665Z,15.50
2022-10-07T10:34:51.159Z,15.80
2022-10-07T10:40:01.577Z,16.00
2022-10-07T10:45:18.374Z,16.70
2022-10-07T10:50:25.990Z,18.40
2022-10-07T10:55:42.805Z,17.40
2022-10-07T11:00:57.616Z,17.30
2022-10-07T11:06:02.913Z,17.10
2022-10-07T11:17:02.543Z,17.40
2022-10-07T11:22:06.429Z,18.40
2022-10-07T11:27:15.010Z,18.10
2022-10-07T11:32:25.169Z,17.70
2022-10-07T11:37:30.654Z,17.90
2022-10-07T11:42:34.958Z,18.00
2022-10-07T11:47:40.484Z,18.70
2022-10-07T11:52:45.516Z,18.60
2022-10-07T11:57:54.023Z,18.20
2022-10-07T12:02:58.940Z,19.20
2022-10-07T12:08:03.367Z,18.80
2022-10-07T12:13:36.843Z,18.10
2022-10-07T12:18:42.171Z,17.80
2022-10-07T12:23:46.186Z,17.90
2022-10-07T12:29:23.902Z,18.60
2022-10-07T12:34:36.275Z,20.40
2022-10-07T12:39:39.382Z,20.80
2022-10-07T12:44:45.535Z,20.10
2022-10-07T12:49:50.613Z,21.00
2022-10-07T12:54:55.651Z,20.90
2022-10-07T13:00:03.020Z,19.50
2022-10-07T13:05:20.206Z,19.90
2022-10-07T13:10:38.574Z,20.60
2022-10-07T13:15:44.064Z,20.40
2022-10-07T13:21:07.922Z,19.50
2022-10-07T13:26:11.142Z,20.00
2022-10-07T13:31:17.112Z,20.10
2022-10-07T13:36:23.339Z,19.60
2022-10-07T13:41:27.475Z,21.20
2022-10-07T13:46:31.389Z,22.50
2022-10-07T13:51:37.375Z,21.70
2022-10-07T13:56:42.428Z,22.60
2022-10-07T14:01:46.388Z,23.80
2022-10-07T14:06:53.641Z,23.20
2022-10-07T14:11:57.866Z,20.20
2022-10-07T14:17:01.348Z,19.40
2022-10-07T14:22:08.219Z,19.30
2022-10-07T14:27:56.331Z,20.50
2022-10-07T14:33:23.241Z,21.40
2022-10-07T14:38:29.396Z,20.50
2022-10-07T14:43:32.738Z,19.30
2022-10-07T14:48:36.229Z,18.80
2022-10-07T14:53:40.886Z,19.50
2022-10-07T14:58:44.113Z,21.20
2022-10-07T15:03:48.936Z,22.20
2022-10-07T15:08:53.831Z,22.10
2022-10-07T15:13:56.859Z,22.30
2022-10-07T15:19:02.088Z,22.30
2022-10-07T15:24:06.878Z,22.80
2022-10-07T15:29:10.025Z,20.90
2022-10-07T15:34:14.000Z,21.00
2022-10-07T15:39:18.451Z,20.50
2022-10-07T15:44:22.418Z,20.80
2022-10-07T15:49:25.986Z,20.50
2022-10-07T15:54:30.691Z,20.00
2022-10-07T15:59:34.124Z,19.90
2022-10-07T16:04:37.401Z,19.30
2022-10-07T16:09:44.817Z,18.90
2022-10-07T16:14:49.097Z,18.40
2022-10-07T16:19:52.544Z,17.70
2022-10-07T16:24:59.125Z,17.00
2022-10-07T16:30:26.043Z,16.90
2022-10-07T16:35:31.026Z,17.10
2022-10-07T16:40:35.915Z,17.00
2022-10-07T16:45:41.049Z,16.90
2022-10-07T16:50:48.333Z,16.50
2022-10-07T16:55:53.567Z,16.30
2022-10-07T17:01:03.732Z,15.80
2022-10-07T17:06:07.873Z,15.60
2022-10-07T17:11:14.352Z,15.40
2022-10-07T17:16:17.580Z,15.50
2022-10-07T17:21:20.968Z,15.20
2022-10-07T17:26:25.927Z,14.60
2022-10-07T17:31:29.236Z,14.30
2022-10-07T17:36:32.785Z,14.00
2022-10-07T17:41:38.244Z,13.90
2022-10-07T17:46:41.515Z,13.50
2022-10-07T17:51:45.342Z,13.30
2022-10-07T17:56:50.093Z,13.10
2022-10-07T18:01:53.713Z,13.00
2022-10-07T18:06:58.273Z,13.00
2022-10-07T18:12:20.522Z,13.10
2022-10-07T18:17:24.693Z,13.00
2022-10-07T18:22:28.480Z,13.20
2022-10-07T18:27:33.019Z,12.80
2022-10-07T18:32:36.174Z,12.70
2022-10-07T18:37:40.727Z,12.40
2022-10-07T18:42:45.277Z,12.40
2022-10-07T18:47:48.684Z,12.30
2022-10-07T18:52:52.061Z,12.30
2022-10-07T18:57:57.006Z,12.20
2022-10-07T19:03:00.146Z,12.40
2022-10-07T19:08:03.259Z,12.10
2022-10-07T19:13:25.185Z,12.00
2022-10-07T19:18:28.344Z,12.00
2022-10-07T19:23:31.601Z,12.00
2022-10-07T19:28:37.317Z,11.90
2022-10-07T19:33:42.628Z,12.00
2022-10-07T19:38:46.063Z,12.00
2022-10-07T19:43:52.084Z,11.60
2022-10-07T19:48:56.915Z,11.60
2022-10-07T19:54:00.920Z,11.50
2022-10-07T19:59:07.020Z,11.50
2022-10-07T20:04:13.250Z,11.30
2022-10-07T20:09:17.289Z,11.50
2022-10-07T20:14:21.760Z,11.70
2022-10-07T20:19:25.354Z,11.20
2022-10-07T20:24:28.519Z,10.90
2022-10-07T20:29:53.075Z,10.50
2022-10-07T20:34:57.065Z,10.40
2022-10-07T20:40:17.825Z,10.70
2022-10-07T20:45:22.677Z,10.90
2022-10-07T20:50:26.121Z,10.80
2022-10-07T20:55:31.964Z,10.80
2022-10-07T21:00:40.427Z,10.80
2022-10-07T21:05:43.756Z,10.60
2022-10-07T21:10:47.024Z,10.70
2022-10-07T21:15:51.653Z,10.80
2022-10-07T21:20:57.055Z,10.70
2022-10-07T21:26:01.692Z,10.70
2022-10-07T21:31:08.554Z,11.10
2022-10-07T21:36:15.351Z,11.00
2022-10-07T21:41:19.394Z,11.10
2022-10-07T21:46:24.798Z,11.50
2022-10-07T21:51:29.618Z,11.30
2022-10-07T21:56:33.352Z,11.20
2022-10-07T22:01:38.212Z,11.20
2022-10-07T22:06:58.923Z,10.90
2022-10-07T22:12:01.986Z,10.80
2022-10-07T22:17:06.727Z,10.90
2022-10-07T22:22:11.343Z,10.90
2022-10-07T22:27:14.666Z,10.80
2022-10-07T22:32:19.598Z,10.60
2022-10-07T22:37:22.762Z,11.00
2022-10-07T22:42:26.638Z,11.00
2022-10-07T22:47:31.231Z,11.20
2022-10-07T22:52:34.485Z,11.20
2022-10-07T22:57:38.658Z,11.10
2022-10-07T23:02:45.343Z,11.10
2022-10-07T23:07:48.824Z,11.10
2022-10-07T23:12:52.471Z,10.80
2022-10-07T23:17:57.161Z,10.50
2022-10-07T23:23:00.378Z,10.40
2022-10-07T23:28:03.698Z,10.30
2022-10-07T23:33:08.234Z,10.40
2022-10-07T23:38:11.350Z,10.30
2022-10-07T23:43:14.772Z,10.20
2022-10-07T23:48:19.741Z,10.20
2022-10-07T23:53:23.660Z,10.00
2022-10-07T23:58:28.752Z,9.90
